Time;durP1;ratioP1;P1;durP2;ratioP2;P2;SDS_P1;SDS_P2;PMS_P1;PMS_P2;Temp;Humidity;BMP_temperature;BMP_pressure;BME280_temperature;BME280_humidity;BME280_pressure;Samples;Min_cycle;Max_cycle;Signal;HPM_P1;HPM_P2
2022/08/02 00:01:37;;;;;;;5.18;3.72;;;;;;;19.50;98.12;99900.25;6299460;28;20041;-73
2022/08/02 00:04:38;;;;;;;7.50;3.97;;;;;;;19.54;98.80;99901.59;6281741;28;20044;-70
2022/08/02 00:07:39;;;;;;;5.20;4.00;;;;;;;19.54;98.63;99898.97;6265146;28;20074;-73
2022/08/02 00:10:41;;;;;;;6.55;4.32;;;;;;;19.57;98.92;99903.09;6299329;28;20079;-72
2022/08/02 00:13:44;;;;;;;10.23;4.57;;;;;;;19.58;99.16;99910.91;6281698;28;20040;-70
2022/08/02 00:16:51;;;;;;;5.57;4.63;;;;;;;19.62;98.59;99914.03;6299251;28;20045;-73
2022/08/02 00:19:52;;;;;;;7.60;4.28;;;;;;;19.60;97.83;99900.13;6238591;28;20064;-73
2022/08/02 00:22:53;;;;;;;7.80;4.10;;;;;;;19.61;97.42;99899.16;6256603;28;20123;-70
2022/08/02 00:25:54;;;;;;;4.70;4.20;;;;;;;19.64;97.39;99909.44;6256582;28;20052;-70
2022/08/02 00:28:56;;;;;;;6.60;4.67;;;;;;;19.66;98.84;99905.66;6278250;28;20124;-70
2022/08/02 00:31:58;;;;;;;4.57;3.83;;;;;;;19.69;100.00;99905.34;6265535;28;20056;-73
2022/08/02 00:34:59;;;;;;;5.20;4.10;;;;;;;19.71;99.15;99905.22;6298925;28;20098;-73
2022/08/02 00:38:00;;;;;;;4.70;4.30;;;;;;;19.70;100.00;99904.38;6281069;28;20474;-73
2022/08/02 00:41:01;;;;;;;5.90;4.00;;;;;;;19.70;100.00;99906.16;6280882;28;20044;-73
2022/08/02 00:44:01;;;;;;;5.80;4.10;;;;;;;19.67;100.00;99902.00;6280808;28;20049;-69
2022/08/02 00:47:02;;;;;;;4.60;4.13;;;;;;;19.66;100.00;99904.81;6280801;28;20054;-70
2022/08/02 00:50:03;;;;;;;5.10;4.33;;;;;;;19.65;100.00;99906.63;6298642;28;20419;-73
2022/08/02 00:53:10;;;;;;;5.60;4.18;;;;;;;19.64;100.00;99902.34;6264366;28;20556;-69
2022/08/02 00:56:11;;;;;;;4.18;3.75;;;;;;;19.64;100.00;99906.78;6280492;28;20125;-71
2022/08/02 00:59:12;;;;;;;5.77;4.60;;;;;;;19.62;100.00;99904.31;6262906;28;20054;-70
2022/08/02 01:02:18;;;;;;;5.70;4.53;;;;;;;19.61;100.00;99905.28;6264664;28;20044;-73
2022/08/02 01:05:19;;;;;;;4.85;4.35;;;;;;;19.60;100.00;99903.63;6263846;28;20388;-73
2022/08/02 01:08:20;;;;;;;8.35;4.50;;;;;;;19.56;100.00;99904.06;6247471;28;20048;-70
2022/08/02 01:11:21;;;;;;;5.45;4.28;;;;;;;19.49;100.00;99899.41;6263231;28;20044;-69
2022/08/02 01:14:24;;;;;;;8.32;4.78;;;;;;;19.47;100.00;99908.50;6270502;28;20045;-69
2022/08/02 01:17:44;;;;;;;;;;;;;;;19.51;100.00;99907.19;6256769;28;20040;-73
2022/08/02 01:21:00;;;;;;;8.00;4.65;;;;;;;19.54;100.00;99896.31;6273676;28;19920;-73
2022/08/02 01:24:11;;;;;;;6.40;5.07;;;;;;;19.57;100.00;99898.63;6274146;28;20075;-73
2022/08/02 01:27:27;;;;;;;9.77;5.60;;;;;;;19.57;100.00;99896.00;6293099;28;20069;-73
2022/08/02 01:30:31;;;;;;;7.13;5.78;;;;;;;19.55;100.00;99905.09;6280561;28;20068;-73
2022/08/02 01:33:43;;;;;;;8.68;6.43;;;;;;;19.56;100.00;99899.63;6295975;28;20071;-73
2022/08/02 01:36:59;;;;;;;7.50;5.93;;;;;;;19.59;100.00;99901.13;6298397;28;20047;-70
2022/08/02 01:40:07;;;;;;;7.68;6.50;;;;;;;19.57;100.00;99903.09;6280140;28;20181;-73
2022/08/02 01:43:10;;;;;;;7.68;6.55;;;;;;;19.58;100.00;99902.97;6298258;28;20127;-70
2022/08/02 01:46:14;;;;;;;9.30;7.40;;;;;;;19.63;100.00;99892.72;6298010;28;20105;-70
2022/08/02 01:49:19;;;;;;;9.13;7.28;;;;;;;19.58;100.00;99879.16;6298305;28;20036;-73
2022/08/02 01:52:25;;;;;;;8.43;6.88;;;;;;;19.64;100.00;99882.97;6298030;28;20490;-70
2022/08/02 01:55:32;;;;;;;8.00;7.10;;;;;;;19.62;100.00;99879.63;6297960;28;20411;-73
2022/08/02 01:58:36;;;;;;;8.65;6.72;;;;;;;19.59;100.00;99887.91;6297896;28;20059;-70
2022/08/02 02:01:39;;;;;;;13.77;7.22;;;;;;;19.56;100.00;99890.84;6297782;28;20045;-70
2022/08/02 02:04:41;;;;;;;9.10;6.82;;;;;;;19.45;100.00;99891.94;6296574;28;20490;-73
2022/08/02 02:07:44;;;;;;;9.52;7.00;;;;;;;19.49;100.00;99895.94;6282438;28;20123;-73
2022/08/02 02:10:45;;;;;;;9.93;6.72;;;;;;;19.42;100.00;99892.25;6253726;28;20403;-73
2022/08/02 02:13:49;;;;;;;8.52;6.53;;;;;;;19.38;100.00;99897.03;6289832;28;20047;-70
2022/08/02 02:16:49;;;;;;;8.40;6.68;;;;;;;19.40;100.00;99889.75;6279078;28;20123;-73
2022/08/02 02:19:52;;;;;;;6.87;6.10;;;;;;;19.35;100.00;99884.09;6261925;28;20105;-70
2022/08/02 02:22:53;;;;;;;7.93;6.20;;;;;;;19.38;100.00;99888.28;6296336;28;20513;-70
2022/08/02 02:25:55;;;;;;;7.93;6.70;;;;;;;19.32;100.00;99895.00;6278553;28;20051;-69
2022/08/02 02:28:58;;;;;;;;;;;;;;;19.27;100.00;99894.59;6278759;28;20083;-73
2022/08/02 02:32:00;;;;;;;8.60;6.97;;;;;;;19.20;100.00;99899.69;6291487;28;20394;-73
2022/08/02 02:35:02;;;;;;;;;;;;;;;19.11;100.00;99898.81;6253837;28;20049;-70
2022/08/02 02:38:07;;;;;;;8.77;7.60;;;;;;;19.08;100.00;99911.50;6271248;28;19924;-73
2022/08/02 02:41:09;;;;;;;9.20;8.13;;;;;;;19.08;100.00;99906.19;6253410;28;20041;-70
2022/08/02 02:44:15;;;;;;;9.05;7.97;;;;;;;19.04;100.00;99907.47;6253394;28;20071;-71
2022/08/02 02:47:18;;;;;;;11.38;8.88;;;;;;;18.92;100.00;99907.72;6270937;28;20475;-70
2022/08/02 02:50:20;;;;;;;14.32;8.52;;;;;;;18.86;100.00;99912.75;6271206;28;20048;-70
2022/08/02 02:53:22;;;;;;;13.60;9.25;;;;;;;18.86;100.00;99912.75;6236540;28;20049;-69
2022/08/02 02:56:24;;;;;;;10.50;8.32;;;;;;;18.80;100.00;99916.00;6270914;28;20539;-70
2022/08/02 02:59:25;;;;;;;10.77;9.35;;;;;;;18.77;100.00;99903.06;6259788;28;20051;-70
2022/08/02 03:02:26;;;;;;;10.65;8.35;;;;;;;18.78;100.00;99907.38;6277787;28;20276;-70
2022/08/02 03:05:27;;;;;;;11.73;8.40;;;;;;;18.76;100.00;99907.53;6295585;28;20123;-70
2022/08/02 03:08:28;;;;;;;14.97;9.40;;;;;;;18.66;100.00;99904.13;6261333;28;20491;-70
2022/08/02 03:11:30;;;;;;;13.93;8.93;;;;;;;18.76;100.00;99907.53;6261152;28;20115;-73
2022/08/02 03:14:32;;;;;;;11.60;9.38;;;;;;;18.69;100.00;99904.63;6277714;28;20111;-73
2022/08/02 03:17:44;;;;;;;12.00;8.98;;;;;;;18.69;100.00;99912.56;6261202;28;20037;-70
2022/08/02 03:20:45;;;;;;;13.95;9.55;;;;;;;18.70;100.00;99911.59;6260773;28;20068;-73
2022/08/02 03:23:49;;;;;;;13.33;9.50;;;;;;;18.70;100.00;99921.34;6260340;28;20068;-71
2022/08/02 03:26:50;;;;;;;11.82;9.73;;;;;;;18.67;100.00;99919.81;6295366;28;20053;-70
2022/08/02 03:29:53;;;;;;;14.85;11.45;;;;;;;18.59;100.00;99921.53;6277736;28;20410;-70
2022/08/02 03:32:54;;;;;;;16.80;12.88;;;;;;;18.63;100.00;99913.16;6277409;28;20494;-73
2022/08/02 03:35:58;;;;;;;14.00;10.43;;;;;;;18.59;100.00;99917.09;6244623;28;20037;-70
2022/08/02 03:39:01;;;;;;;13.57;11.00;;;;;;;18.65;100.00;99926.22;6295250;28;20515;-73
2022/08/02 03:42:02;;;;;;;15.10;11.30;;;;;;;18.66;100.00;99922.63;6277172;28;20056;-73
2022/08/02 03:45:07;;;;;;;14.65;11.05;;;;;;;18.64;100.00;99922.78;6295154;28;20044;-73
2022/08/02 03:48:10;;;;;;;19.65;14.00;;;;;;;18.63;100.00;99931.66;6261939;28;20419;-73
2022/08/02 03:51:12;;;;;;;21.73;13.75;;;;;;;18.67;100.00;99930.38;6252377;28;20124;-70
2022/08/02 03:54:16;;;;;;;17.77;12.20;;;;;;;18.61;100.00;99933.63;6270067;28;20049;-69
2022/08/02 03:57:17;;;;;;;14.48;10.93;;;;;;;18.65;100.00;99931.53;6252401;28;20052;-70
2022/08/02 04:00:21;;;;;;;15.33;10.97;;;;;;;18.66;100.00;99936.66;6252465;28;20045;-73
2022/08/02 04:03:22;;;;;;;16.40;10.40;;;;;;;18.74;100.00;99941.22;6252217;28;20045;-70
2022/08/02 04:06:24;;;;;;;15.63;11.18;;;;;;;18.80;100.00;99945.94;6235990;28;20127;-73
2022/08/02 04:09:26;;;;;;;14.95;10.13;;;;;;;18.70;100.00;99950.41;6220137;28;20045;-69
2022/08/02 04:12:26;;;;;;;16.87;10.47;;;;;;;18.74;100.00;99951.78;6235920;28;20057;-69
2022/08/02 04:15:29;;;;;;;11.65;10.15;;;;;;;18.73;100.00;99950.94;6252293;28;20247;-69
2022/08/02 04:18:38;;;;;;;15.10;10.50;;;;;;;18.92;100.00;99947.38;6236380;28;20068;-70
2022/08/02 04:21:42;;;;;;;12.40;9.93;;;;;;;18.99;100.00;99950.25;6284858;28;20052;-73
2022/08/02 04:24:53;;;;;;;13.27;9.57;;;;;;;19.10;100.00;99951.84;6252931;28;20514;-70
2022/08/02 04:27:54;;;;;;;11.93;9.70;;;;;;;19.17;100.00;99952.06;6228404;28;20438;-70
2022/08/02 04:30:57;;;;;;;18.98;10.45;;;;;;;19.18;100.00;99956.38;6246141;28;20049;-70
2022/08/02 04:34:01;;;;;;;14.82;10.40;;;;;;;19.25;100.00;99960.91;6247486;28;20619;-69
2022/08/02 04:37:06;;;;;;;14.10;10.68;;;;;;;19.17;100.00;99966.13;6267912;28;20041;-73
2022/08/02 04:40:11;;;;;;;14.02;10.77;;;;;;;19.28;100.00;99970.34;6257887;28;20041;-73
2022/08/02 04:43:15;;;;;;;12.90;10.43;;;;;;;19.39;100.00;99970.09;6274748;28;20044;-69
2022/08/02 04:46:16;;;;;;;13.05;10.63;;;;;;;19.40;100.00;99971.78;6257530;28;20415;-73
2022/08/02 04:49:18;;;;;;;;;;;;;;;19.49;100.00;99972.66;6287330;28;20471;-73
2022/08/02 04:52:19;;;;;;;13.70;9.75;;;;;;;19.59;100.00;99967.28;6282618;28;19924;-73
2022/08/02 04:55:21;;;;;;;13.00;9.35;;;;;;;19.70;100.00;99969.69;6239684;28;20060;-73
2022/08/02 04:58:22;;;;;;;10.90;8.85;;;;;;;19.80;100.00;99974.91;6257904;28;20086;-70
2022/08/02 05:01:23;;;;;;;13.73;8.75;;;;;;;20.01;100.00;99987.78;6269738;28;20041;-73
2022/08/02 05:04:24;;;;;;;15.27;9.57;;;;;;;20.15;100.00;99983.72;6222823;28;20079;-70
2022/08/02 05:07:25;;;;;;;11.70;8.68;;;;;;;20.22;100.00;99988.25;6255363;28;20488;-71
2022/08/02 05:10:27;;;;;;;9.25;8.27;;;;;;;20.25;100.00;99982.63;6276212;28;20047;-73
2022/08/02 05:13:28;;;;;;;9.88;8.27;;;;;;;20.38;100.00;99994.59;6284750;28;20080;-71
2022/08/02 05:16:29;;;;;;;9.45;8.02;;;;;;;20.41;100.00;99994.31;6257863;28;20124;-71
2022/08/02 05:19:30;;;;;;;11.23;8.27;;;;;;;20.48;100.00;99998.78;6280004;28;20414;-73
2022/08/02 05:22:31;;;;;;;10.33;7.70;;;;;;;20.57;100.00;100001.47;6227520;28;20059;-73
2022/08/02 05:25:32;;;;;;;10.23;7.50;;;;;;;20.69;100.00;100000.22;6255171;28;20128;-71
2022/08/02 05:28:32;;;;;;;10.37;7.50;;;;;;;20.80;100.00;100010.56;6238791;28;20488;-70
2022/08/02 05:31:33;;;;;;;11.37;6.40;;;;;;;20.90;97.96;100007.78;6238761;28;20037;-73
2022/08/02 05:34:35;;;;;;;8.73;5.68;;;;;;;20.97;95.36;100005.31;6261366;28;20040;-73
2022/08/02 05:37:36;;;;;;;15.03;5.87;;;;;;;21.13;96.24;100010.66;6229315;28;20052;-73
2022/08/02 05:40:37;;;;;;;7.60;5.05;;;;;;;21.20;89.35;100008.97;6265891;28;20063;-73
2022/08/02 05:43:41;;;;;;;7.57;5.03;;;;;;;21.32;87.77;100020.94;6222156;28;20507;-70
2022/08/02 05:46:44;;;;;;;8.38;5.13;;;;;;;21.49;87.52;100019.16;6253927;28;20072;-70
2022/08/02 05:49:44;;;;;;;6.40;4.65;;;;;;;21.71;88.10;100022.97;6222433;28;20049;-73
2022/08/02 05:52:59;;;;;;;7.87;4.10;;;;;;;21.76;84.20;100029.63;6222001;28;20037;-70
2022/08/02 05:56:06;;;;;;;7.13;4.15;;;;;;;21.95;82.52;100026.63;6273134;28;20040;-73
2022/08/02 05:59:37;;;;;;;4.55;3.55;;;;;;;22.07;79.11;100025.28;6256038;28;20051;-70
2022/08/02 06:03:08;;;;;;;7.25;2.97;;;;;;;22.18;76.51;100029.41;6254287;28;20041;-70
2022/08/02 06:06:13;;;;;;;4.13;3.08;;;;;;;22.28;75.65;100031.91;6263850;28;20518;-70
2022/08/02 06:09:16;;;;;;;4.80;3.58;;;;;;;22.46;75.48;100032.50;6271930;28;20124;-70
2022/08/02 06:12:24;;;;;;;5.80;3.55;;;;;;;22.53;73.25;100036.13;6272358;28;20045;-71
2022/08/02 06:15:25;;;;;;;5.30;3.42;;;;;;;22.64;73.77;100040.25;6266415;28;20148;-69
2022/08/02 06:18:27;;;;;;;5.72;3.45;;;;;;;22.85;75.05;100050.28;6253551;28;20120;-69
2022/08/02 06:21:28;;;;;;;5.40;3.38;;;;;;;23.18;70.51;100058.13;6267483;28;20403;-71
2022/08/02 06:24:34;;;;;;;5.23;3.10;;;;;;;23.33;72.03;100063.56;6268711;28;20045;-70
2022/08/02 06:27:37;;;;;;;6.68;3.65;;;;;;;23.63;68.81;100053.00;6272256;28;20320;-74
2022/08/02 06:30:39;;;;;;;4.72;3.20;;;;;;;23.82;69.54;100073.03;6274341;28;20505;-73
2022/08/02 06:33:40;;;;;;;8.45;3.25;;;;;;;24.17;66.89;100066.22;6276993;28;20049;-73
2022/08/02 06:36:50;;;;;;;3.72;3.10;;;;;;;24.24;66.11;100071.66;6293069;28;20119;-70
2022/08/02 06:40:02;;;;;;;4.90;3.10;;;;;;;24.27;65.50;100072.09;6288403;28;20071;-70
2022/08/02 06:43:20;;;;;;;6.10;3.28;;;;;;;24.27;64.87;100073.94;6277683;28;20044;-71
2022/08/02 06:46:21;;;;;;;6.70;3.40;;;;;;;24.16;63.94;100067.22;6272618;28;20359;-71
2022/08/02 06:49:22;;;;;;;7.55;3.47;;;;;;;24.23;65.02;100062.00;6282476;28;20070;-74
2022/08/02 06:52:29;;;;;;;12.67;4.30;;;;;;;24.48;65.57;100059.88;6254306;28;20457;-74
2022/08/02 06:55:31;;;;;;;3.65;2.97;;;;;;;24.54;63.43;100064.50;6281162;28;20102;-74
2022/08/02 06:58:31;;;;;;;3.67;3.03;;;;;;;24.59;62.14;100064.00;6229036;28;20045;-71
2022/08/02 07:01:32;;;;;;;6.13;3.07;;;;;;;24.73;63.69;100068.50;6271014;28;20033;-71
2022/08/02 07:04:33;;;;;;;3.88;3.15;;;;;;;24.88;62.68;100055.94;6269602;28;20086;-72
2022/08/02 07:07:34;;;;;;;5.37;3.43;;;;;;;24.91;60.23;100060.06;6243532;28;20486;-72
2022/08/02 07:10:40;;;;;;;5.03;3.10;;;;;;;24.85;62.51;100059.00;6278748;28;20315;-71
2022/08/02 07:13:40;;;;;;;4.70;3.20;;;;;;;25.01;61.39;100060.59;6262587;28;20493;-71
2022/08/02 07:16:42;;;;;;;9.93;3.25;;;;;;;25.26;62.29;100049.59;6253307;28;20128;-75
2022/08/02 07:19:43;;;;;;;5.95;3.40;;;;;;;25.25;60.34;100043.44;6236433;28;20053;-69
2022/08/02 07:22:45;;;;;;;4.35;3.50;;;;;;;25.22;58.99;100038.47;6257356;28;20518;-71
2022/08/02 07:25:47;;;;;;;4.63;2.85;;;;;;;25.29;58.34;100044.72;6227111;28;20049;-72
2022/08/02 07:28:48;;;;;;;5.75;2.92;;;;;;;25.41;60.38;100045.06;6271490;28;20091;-69
2022/08/02 07:31:50;;;;;;;6.28;3.00;;;;;;;25.71;57.14;100040.38;6252823;28;20056;-69
2022/08/02 07:34:53;;;;;;;4.18;2.70;;;;;;;25.71;54.76;100044.91;6267517;28;20075;-71
2022/08/02 07:37:54;;;;;;;6.07;3.10;;;;;;;25.93;56.26;100037.72;6277516;28;20405;-69
2022/08/02 07:40:55;;;;;;;7.50;2.95;;;;;;;25.79;56.14;100034.06;6277545;28;20376;-72
2022/08/02 07:43:57;;;;;;;4.82;3.17;;;;;;;26.00;56.62;100035.91;6260730;28;20056;-70
2022/08/02 07:46:57;;;;;;;6.40;3.10;;;;;;;25.89;57.01;100042.63;6295355;28;20064;-70
2022/08/02 07:49:58;;;;;;;4.38;3.08;;;;;;;26.53;55.60;100036.22;6244431;28;20044;-70
2022/08/02 07:53:02;;;;;;;4.47;3.15;;;;;;;26.42;54.64;100034.13;6260644;28;20483;-70
2022/08/02 07:56:03;;;;;;;6.50;3.40;;;;;;;26.50;55.24;100039.31;6277188;28;20040;-71
2022/08/02 07:59:04;;;;;;;6.95;2.95;;;;;;;26.54;54.75;100035.22;6260686;28;20048;-70
2022/08/02 08:02:05;;;;;;;4.70;3.00;;;;;;;26.45;53.35;100038.25;6286374;28;20041;-71
2022/08/02 08:05:09;;;;;;;8.70;2.72;;;;;;;26.81;52.84;100046.06;6235882;28;20122;-70
2022/08/02 08:08:12;;;;;;;4.10;3.00;;;;;;;26.91;53.19;100048.34;6257652;28;20045;-73
2022/08/02 08:11:16;;;;;;;9.48;3.10;;;;;;;27.19;51.26;100050.09;6258395;28;20128;-73
2022/08/02 08:14:17;;;;;;;5.53;3.10;;;;;;;27.36;53.16;100047.88;6240823;28;20403;-70
2022/08/02 08:17:17;;;;;;;5.32;2.75;;;;;;;27.45;50.56;100042.13;6240370;28;20045;-70
2022/08/02 08:20:21;;;;;;;9.18;2.72;;;;;;;27.73;48.69;100041.94;6240337;28;20065;-73
2022/08/02 08:23:23;;;;;;;4.32;2.63;;;;;;;27.55;49.30;100047.09;6274536;28;20067;-70
2022/08/02 08:26:25;;;;;;;5.38;3.03;;;;;;;27.34;49.92;100050.75;6256601;28;20041;-73
2022/08/02 08:29:26;;;;;;;9.10;2.90;;;;;;;27.64;48.72;100051.22;6240545;28;20124;-71
2022/08/02 08:32:27;;;;;;;5.15;2.65;;;;;;;27.65;46.45;100049.34;6223859;28;20048;-70
2022/08/02 08:35:28;;;;;;;7.32;2.28;;;;;;;27.76;47.19;100048.75;6256382;28;20115;-70
2022/08/02 08:38:31;;;;;;;5.22;2.45;;;;;;;27.76;44.82;100043.41;6223591;28;20049;-70
2022/08/02 08:41:34;;;;;;;3.67;2.45;;;;;;;27.93;45.50;100044.63;6256155;28;20250;-70
2022/08/02 08:44:38;;;;;;;6.10;2.65;;;;;;;28.34;45.30;100043.53;6273955;28;20040;-73
2022/08/02 08:47:40;;;;;;;3.97;2.10;;;;;;;28.52;44.95;100047.47;6259533;28;20437;-71
2022/08/02 08:50:59;;;;;;;3.70;2.30;;;;;;;28.45;43.78;100036.69;6273939;28;20062;-73
2022/08/02 08:54:02;;;;;;;4.38;2.50;;;;;;;28.67;43.53;100039.97;6280925;28;20075;-71
2022/08/02 08:57:04;;;;;;;8.20;2.58;;;;;;;28.51;44.17;100035.88;6256458;28;20041;-71
2022/08/02 09:00:10;;;;;;;3.00;2.38;;;;;;;28.07;44.36;100045.47;6271227;28;20053;-70
2022/08/02 09:03:13;;;;;;;4.88;2.45;;;;;;;28.41;44.70;100043.53;6280856;28;20147;-71
2022/08/02 09:06:14;;;;;;;3.83;2.38;;;;;;;28.59;42.86;100042.88;6264079;28;20410;-73
2022/08/02 09:09:14;;;;;;;8.52;2.42;;;;;;;28.84;43.11;100042.97;6263772;28;20036;-73
2022/08/02 09:12:21;;;;;;;6.60;2.70;;;;;;;28.09;45.00;100034.53;6280412;28;20083;-73
2022/08/02 09:15:23;;;;;;;5.13;3.10;;;;;;;28.86;45.75;100042.78;6263563;28;20099;-70
2022/08/02 09:18:43;;;;;;;12.15;2.90;;;;;;;28.96;42.51;100036.94;6298114;28;20045;-70
2022/08/02 09:21:44;;;;;;;3.97;2.80;;;;;;;28.90;43.73;100038.63;6290390;28;20182;-71
2022/08/02 09:24:50;;;;;;;6.10;3.05;;;;;;;29.20;43.34;100040.75;6268374;28;20044;-70
2022/08/02 09:27:51;;;;;;;4.53;2.65;;;;;;;29.52;47.39;100039.72;6277408;28;20052;-71
2022/08/02 09:30:55;;;;;;;8.05;2.80;;;;;;;29.24;44.71;100034.75;6280100;28;20067;-71
2022/08/02 09:33:58;;;;;;;5.32;3.05;;;;;;;29.22;43.47;100033.31;6297902;28;20119;-70
2022/08/02 09:37:02;;;;;;;5.70;2.92;;;;;;;29.17;45.72;100033.97;6279510;28;20049;-72
2022/08/02 09:40:05;;;;;;;3.50;3.00;;;;;;;28.59;46.92;100034.84;6274541;28;20150;-73
2022/08/02 09:43:07;;;;;;;8.48;3.10;;;;;;;28.23;47.20;100038.84;6239214;28;20502;-73
2022/08/02 09:46:13;;;;;;;3.25;2.72;;;;;;;29.04;45.85;100028.66;6254531;28;20053;-71
2022/08/02 09:49:16;;;;;;;5.50;3.10;;;;;;;29.45;44.57;100038.94;6254857;28;20037;-71
2022/08/02 09:52:28;;;;;;;7.35;3.03;;;;;;;29.47;43.68;100036.88;6254537;28;20053;-73
2022/08/02 09:55:29;;;;;;;4.85;3.10;;;;;;;28.86;46.80;100038.22;6259224;28;20431;-72
2022/08/02 09:58:30;;;;;;;12.73;3.58;;;;;;;27.90;49.42;100038.88;6279264;28;20051;-70
2022/08/02 10:01:35;;;;;;;5.13;3.08;;;;;;;28.90;46.12;100036.75;6246179;28;20052;-73
2022/08/02 10:04:37;;;;;;;8.85;3.38;;;;;;;28.15;48.23;100036.38;6263124;28;20131;-70
2022/08/02 10:07:56;;;;;;;6.57;2.80;;;;;;;28.47;47.89;100029.25;6267221;28;20055;-73
2022/08/02 10:11:02;;;;;;;5.05;2.90;;;;;;;28.80;45.84;100028.34;6296861;28;20044;-73
2022/08/02 10:14:06;;;;;;;9.63;2.70;;;;;;;28.92;44.73;100025.81;6246332;28;20052;-70
2022/08/02 10:17:08;;;;;;;6.55;2.80;;;;;;;29.57;43.20;100022.09;6296592;28;20101;-74
2022/08/02 10:20:10;;;;;;;6.88;2.80;;;;;;;29.54;43.48;100013.44;6296491;28;20079;-73
2022/08/02 10:23:14;;;;;;;3.20;2.45;;;;;;;29.52;42.62;100026.25;6262219;28;20037;-71
2022/08/02 10:26:19;;;;;;;4.40;2.97;;;;;;;29.48;42.06;100022.38;6296422;28;20410;-71
2022/08/02 10:29:34;;;;;;;4.00;2.70;;;;;;;29.64;41.36;100017.50;6296354;28;20073;-71
2022/08/02 10:32:44;;;;;;;5.03;2.88;;;;;;;29.66;41.81;100010.84;6296259;28;20040;-70
2022/08/02 10:35:49;;;;;;;6.47;3.00;;;;;;;29.88;40.86;100018.56;6272163;28;20045;-70
2022/08/02 10:38:50;;;;;;;7.68;3.00;;;;;;;29.89;39.72;100017.50;6277141;28;20285;-71
2022/08/02 10:41:52;;;;;;;3.80;3.15;;;;;;;30.06;39.48;100013.22;6278436;28;20494;-74
2022/08/02 10:45:08;;;;;;;12.32;2.65;;;;;;;30.52;40.97;100008.41;6289722;28;20048;-71
2022/08/02 10:48:13;;;;;;;4.30;2.80;;;;;;;30.98;39.46;100011.56;6258014;28;20490;-71
2022/08/02 10:51:14;;;;;;;5.70;2.97;;;;;;;31.37;40.51;100012.00;6277772;28;20048;-71
2022/08/02 10:54:19;;;;;;;;;;;;;;;30.82;41.96;100013.78;6295691;28;20052;-70
2022/08/02 10:57:25;;;;;;;7.22;2.75;;;;;;;30.21;41.44;100010.16;6261324;28;19920;-71
2022/08/02 11:00:27;;;;;;;4.82;3.10;;;;;;;30.38;41.98;99999.66;6277858;28;20116;-70
2022/08/02 11:03:31;;;;;;;9.55;3.17;;;;;;;30.41;41.45;100004.56;6272322;28;20500;-74
2022/08/02 11:06:32;;;;;;;5.45;3.10;;;;;;;30.41;39.97;99998.38;6290203;28;20056;-74
2022/08/02 11:09:34;;;;;;;3.67;2.80;;;;;;;29.99;40.93;100000.88;6278770;28;20056;-73
2022/08/02 11:13:05;;;;;;;3.97;2.70;;;;;;;30.26;39.61;100002.22;6295190;28;20040;-74
2022/08/02 11:16:06;;;;;;;3.78;3.10;;;;;;;30.01;40.79;100006.84;6270437;28;20118;-74
2022/08/02 11:19:07;;;;;;;4.43;2.90;;;;;;;30.12;41.04;99998.03;6220869;28;20044;-73
2022/08/02 11:22:12;;;;;;;3.08;2.70;;;;;;;30.47;41.09;100000.16;6237087;28;20064;-73
2022/08/02 11:25:21;;;;;;;4.90;2.95;;;;;;;30.20;41.55;99994.22;6281788;28;20540;-70
2022/08/02 11:28:23;;;;;;;5.22;2.97;;;;;;;30.39;40.71;99992.38;6249051;28;20087;-71
2022/08/02 11:31:23;;;;;;;6.75;3.53;;;;;;;30.08;41.17;99997.69;6242590;28;20045;-71
2022/08/02 11:34:25;;;;;;;3.30;3.00;;;;;;;29.72;43.02;99995.75;6228621;28;20064;-74
2022/08/02 11:37:31;;;;;;;6.20;3.45;;;;;;;30.12;43.22;99993.50;6267204;28;20048;-74
2022/08/02 11:40:37;;;;;;;4.38;3.17;;;;;;;30.18;41.53;99989.06;6253455;28;20049;-71
2022/08/02 11:43:42;;;;;;;4.25;3.20;;;;;;;29.85;42.77;99986.72;6253853;28;20128;-73
2022/08/02 11:46:43;;;;;;;4.07;3.30;;;;;;;30.13;41.25;99997.00;6275041;28;20446;-73
2022/08/02 11:49:46;;;;;;;5.32;3.38;;;;;;;30.56;39.33;99993.44;6241103;28;20059;-73
2022/08/02 11:52:47;;;;;;;6.60;3.28;;;;;;;30.57;41.16;99986.97;6241580;28;20112;-72
2022/08/02 11:56:28;;;;;;;7.28;3.50;;;;;;;30.70;43.28;99992.22;6260986;28;20495;-73
2022/08/02 11:59:57;;;;;;;4.35;3.35;;;;;;;31.46;43.67;99989.91;6258295;28;20461;-72
2022/08/02 12:02:58;;;;;;;3.95;3.30;;;;;;;31.23;40.70;99989.81;6292085;28;20045;-72
2022/08/02 12:06:01;;;;;;;6.88;3.63;;;;;;;31.52;39.74;99986.25;6251939;28;20036;-70
2022/08/02 12:09:07;;;;;;;6.32;3.38;;;;;;;31.36;40.28;99989.63;6271463;28;20040;-73
2022/08/02 12:12:10;;;;;;;4.13;3.30;;;;;;;31.00;40.05;99986.03;6255948;28;20190;-73
2022/08/02 12:15:12;;;;;;;4.22;3.08;;;;;;;30.67;42.36;99983.75;6257776;28;20052;-69
2022/08/02 12:21:38;;;;;;;4.85;3.55;;;;;;;29.86;45.56;99974.94;6233843;28;20057;-70
2022/08/02 12:24:41;;;;;;;4.97;3.35;;;;;;;29.51;45.62;99981.63;6261771;28;20041;-72
2022/08/02 12:27:42;;;;;;;4.57;3.42;;;;;;;30.06;45.06;99985.47;6264879;28;20049;-73
2022/08/02 12:31:02;;;;;;;3.78;3.38;;;;;;;30.63;42.73;99990.66;6240178;28;20083;-72
2022/08/02 12:34:16;;;;;;;7.53;3.40;;;;;;;30.27;43.98;99976.97;6274273;28;20047;-72
2022/08/02 12:37:24;;;;;;;4.50;3.25;;;;;;;30.09;43.69;99983.16;6274457;28;20076;-69
2022/08/02 12:40:29;;;;;;;4.95;3.35;;;;;;;29.97;43.04;99986.84;6239904;28;20466;-73
2022/08/02 12:43:31;;;;;;;7.30;3.35;;;;;;;30.43;42.16;99974.75;6256274;28;20059;-69
2022/08/02 12:46:32;;;;;;;9.35;3.17;;;;;;;31.03;40.07;99984.72;6240043;28;20060;-69
2022/08/02 12:49:33;;;;;;;;;;;;;;;31.09;42.57;99981.97;6256617;28;20106;-69
2022/08/02 12:52:33;;;;;;;3.70;3.27;;;;;;;30.55;40.26;99980.19;6256227;28;19924;-69
2022/08/02 12:55:40;;;;;;;3.83;3.05;;;;;;;29.96;42.74;99977.09;6256160;28;20045;-70
2022/08/02 12:58:48;;;;;;;3.63;3.20;;;;;;;29.58;43.58;99967.31;6255882;28;20126;-72
2022/08/02 13:01:49;;;;;;;6.28;3.08;;;;;;;29.25;43.35;99971.09;6273676;28;20045;-72
2022/08/02 13:04:51;;;;;;;4.13;2.83;;;;;;;29.60;43.48;99974.09;6239555;28;20530;-70
2022/08/02 13:07:52;;;;;;;4.32;3.08;;;;;;;30.04;43.48;99969.59;6256205;28;20476;-70
2022/08/02 13:10:53;;;;;;;3.78;3.00;;;;;;;29.66;42.76;99967.84;6240309;28;20464;-72
2022/08/02 13:13:57;;;;;;;4.15;3.00;;;;;;;29.09;46.06;99970.53;6256834;28;20041;-71
2022/08/02 13:16:57;;;;;;;4.18;3.13;;;;;;;29.04;46.65;99970.38;6224443;28;20078;-70
2022/08/02 13:19:59;;;;;;;5.40;3.22;;;;;;;29.18;47.12;99962.25;6232672;28;20060;-72
2022/08/02 13:23:00;;;;;;;3.88;3.15;;;;;;;29.32;43.18;99975.38;6240178;28;20041;-73
2022/08/02 13:26:03;;;;;;;5.40;3.03;;;;;;;29.28;47.11;99965.25;6257619;28;20041;-73
2022/08/02 13:29:04;;;;;;;4.88;2.85;;;;;;;29.64;44.92;99966.44;6252888;28;20076;-73
2022/08/02 13:32:05;;;;;;;4.25;3.13;;;;;;;29.77;43.50;99969.00;6223521;28;20102;-73
2022/08/02 13:35:06;;;;;;;4.28;3.42;;;;;;;29.69;46.05;99956.66;6239898;28;20052;-73
2022/08/02 13:38:07;;;;;;;;;;;;;;;29.40;47.13;99957.31;6274274;28;20445;-73
2022/08/02 13:41:12;;;;;;;6.28;3.88;;;;;;;29.47;46.89;99952.72;6256057;28;19921;-73
2022/08/02 13:44:13;;;;;;;4.93;3.15;;;;;;;29.41;46.50;99945.56;6255923;28;20126;-70
2022/08/02 13:47:14;;;;;;;;;;;;;;;29.51;45.64;99943.19;6273967;28;20068;-73
2022/08/02 13:50:15;;;;;;;6.03;3.40;;;;;;;29.31;44.92;99952.22;6239499;28;19921;-73
2022/08/02 13:53:16;;;;;;;6.00;3.63;;;;;;;29.33;45.57;99946.63;6239283;28;20056;-73
2022/08/02 13:56:17;;;;;;;8.35;3.17;;;;;;;29.52;45.23;99950.19;6255638;28;20459;-73
2022/08/02 13:59:18;;;;;;;7.15;3.53;;;;;;;29.70;44.85;99941.34;6255381;28;20119;-73
2022/08/02 14:02:18;;;;;;;5.70;3.28;;;;;;;29.56;44.87;99947.91;6262304;28;20063;-73
2022/08/02 14:05:23;;;;;;;5.00;3.80;;;;;;;28.92;46.84;99953.31;6262766;28;20044;-70
2022/08/02 14:08:24;;;;;;;5.15;3.72;;;;;;;29.27;46.43;99942.13;6251078;28;20037;-70
2022/08/02 14:11:25;;;;;;;4.32;3.75;;;;;;;28.99;45.31;99959.44;6238945;28;20045;-73
2022/08/02 14:14:29;;;;;;;4.07;3.67;;;;;;;28.80;46.74;99958.53;6210988;28;20494;-73
2022/08/02 14:17:29;;;;;;;4.20;3.53;;;;;;;28.98;47.81;99957.81;6252616;28;20052;-70
2022/08/02 14:20:31;;;;;;;6.70;3.90;;;;;;;28.96;47.69;99956.38;6237619;28;20094;-72